createdAt,value
2023-03-10T00:01:15.990Z,6.30
2023-03-10T00:03:43.031Z,6.30
2023-03-10T00:06:14.645Z,6.30
2023-03-10T00:08:42.175Z,6.30
2023-03-10T00:11:09.342Z,6.30
2023-03-10T00:13:36.050Z,6.30
2023-03-10T00:16:04.155Z,6.30
2023-03-10T00:18:31.392Z,6.30
2023-03-10T00:20:59.003Z,6.30
2023-03-10T00:23:25.984Z,6.30
2023-03-10T00:25:58.104Z,6.30
2023-03-10T00:28:26.142Z,6.30
2023-03-10T00:31:04.195Z,6.30
2023-03-10T00:33:32.949Z,6.20
2023-03-10T00:36:05.433Z,6.20
2023-03-10T00:38:32.770Z,6.20
2023-03-10T00:41:05.619Z,6.20
2023-03-10T00:43:32.877Z,6.20
2023-03-10T00:45:59.708Z,6.30
2023-03-10T00:48:26.974Z,6.30
2023-03-10T00:50:53.824Z,6.30
2023-03-10T00:53:20.924Z,6.30
2023-03-10T00:56:02.092Z,6.30
2023-03-10T00:58:29.398Z,6.30
2023-03-10T01:00:56.590Z,6.40
2023-03-10T01:03:24.908Z,6.40
2023-03-10T01:05:52.960Z,6.40
2023-03-10T01:08:20.604Z,6.60
2023-03-10T01:10:47.425Z,6.60
2023-03-10T01:13:15.382Z,6.60
2023-03-10T01:15:44.489Z,6.70
2023-03-10T01:18:11.141Z,6.70
2023-03-10T01:20:37.928Z,6.80
2023-03-10T01:23:04.624Z,6.70
2023-03-10T01:25:31.264Z,6.70
2023-03-10T01:27:57.938Z,6.70
2023-03-10T01:30:24.651Z,6.70
2023-03-10T01:32:51.422Z,6.70
2023-03-10T01:35:18.254Z,6.70
2023-03-10T01:37:44.925Z,6.70
2023-03-10T01:40:16.395Z,6.70
2023-03-10T01:42:43.707Z,6.60
2023-03-10T01:45:16.438Z,6.60
2023-03-10T01:47:43.897Z,6.60
2023-03-10T01:50:15.009Z,6.50
2023-03-10T01:52:45.890Z,6.50
2023-03-10T01:55:16.976Z,6.50
2023-03-10T01:57:45.932Z,6.50
2023-03-10T02:00:17.398Z,6.50
2023-03-10T02:03:17.222Z,6.40
2023-03-10T02:05:53.691Z,6.50
2023-03-10T02:08:21.876Z,6.50
2023-03-10T02:10:49.590Z,6.50
2023-03-10T02:13:16.933Z,6.50
2023-03-10T02:15:44.685Z,6.50
2023-03-10T02:18:14.448Z,6.50
2023-03-10T02:20:52.828Z,6.60
2023-03-10T02:23:30.480Z,6.60
2023-03-10T02:26:11.171Z,6.60
2023-03-10T02:28:37.879Z,6.60
2023-03-10T02:31:05.385Z,6.60
2023-03-10T02:33:33.485Z,6.60
2023-03-10T02:36:05.377Z,6.60
2023-03-10T02:38:32.082Z,6.70
2023-03-10T02:40:58.737Z,6.60
2023-03-10T02:43:32.650Z,6.50
2023-03-10T02:46:02.955Z,6.50
2023-03-10T02:48:33.009Z,6.50
2023-03-10T02:51:01.941Z,6.60
2023-03-10T02:53:30.501Z,6.50
2023-03-10T02:55:58.130Z,6.50
2023-03-10T02:58:26.158Z,6.60
2023-03-10T03:00:53.316Z,6.50
2023-03-10T03:03:21.450Z,6.50
2023-03-10T03:05:49.338Z,6.50
2023-03-10T03:08:17.851Z,6.60
2023-03-10T03:10:45.049Z,6.50
2023-03-10T03:13:11.814Z,6.60
2023-03-10T03:15:38.533Z,6.60
2023-03-10T03:18:05.802Z,6.60
2023-03-10T03:20:33.021Z,6.70
2023-03-10T03:23:00.107Z,6.70
2023-03-10T03:25:28.897Z,6.70
2023-03-10T03:27:56.505Z,6.80
2023-03-10T03:30:25.551Z,6.80
2023-03-10T03:32:53.604Z,6.90
2023-03-10T03:35:24.453Z,6.80
2023-03-10T03:37:52.407Z,6.90
2023-03-10T03:40:19.754Z,6.90
2023-03-10T03:42:49.284Z,6.90
2023-03-10T03:45:18.796Z,6.90
2023-03-10T03:47:45.883Z,6.90
2023-03-10T03:50:13.947Z,6.90
2023-03-10T03:52:41.569Z,6.90
2023-03-10T03:55:09.536Z,7.00
2023-03-10T03:57:36.766Z,7.10
2023-03-10T04:00:08.029Z,7.20
2023-03-10T04:02:35.564Z,7.30
2023-03-10T04:05:02.738Z,7.50
2023-03-10T04:07:29.405Z,7.70
2023-03-10T04:09:56.061Z,8.00
2023-03-10T04:12:22.756Z,8.40
2023-03-10T04:14:49.429Z,8.70
2023-03-10T04:17:16.776Z,8.80
2023-03-10T04:19:44.751Z,9.00
2023-03-10T04:22:14.037Z,9.00
2023-03-10T04:24:40.764Z,9.00
2023-03-10T04:27:09.580Z,9.00
2023-03-10T04:29:37.246Z,8.90
2023-03-10T04:32:06.007Z,8.80
2023-03-10T04:34:33.221Z,8.70
2023-03-10T04:36:59.882Z,8.60
2023-03-10T04:39:26.611Z,8.60
2023-03-10T04:41:53.455Z,8.50
2023-03-10T04:44:30.476Z,8.40
2023-03-10T04:46:58.482Z,8.50
2023-03-10T04:49:25.234Z,8.50
2023-03-10T04:51:51.928Z,8.60
2023-03-10T04:54:18.869Z,8.70
2023-03-10T04:56:45.563Z,8.80
2023-03-10T04:59:15.070Z,8.80
2023-03-10T05:01:41.732Z,8.80
2023-03-10T05:04:09.528Z,8.90
2023-03-10T05:06:36.219Z,8.90
2023-03-10T05:09:04.548Z,8.80
2023-03-10T05:11:32.229Z,8.70
2023-03-10T05:13:58.994Z,8.60
2023-03-10T05:16:25.805Z,8.50
2023-03-10T05:18:52.565Z,8.50
2023-03-10T05:21:21.582Z,8.50
2023-03-10T05:23:48.782Z,8.40
2023-03-10T05:26:16.828Z,8.40
2023-03-10T05:28:43.624Z,8.40
2023-03-10T05:31:15.740Z,8.40
2023-03-10T05:33:43.119Z,8.30
2023-03-10T05:36:12.551Z,8.30
2023-03-10T05:38:39.299Z,8.30
2023-03-10T05:41:09.937Z,8.20
2023-03-10T05:43:37.651Z,8.20
2023-03-10T05:46:05.351Z,8.30
2023-03-10T05:48:32.272Z,8.30
2023-03-10T05:51:01.234Z,8.30
2023-03-10T05:53:28.887Z,8.30
2023-03-10T05:55:56.201Z,8.30
2023-03-10T05:58:24.142Z,8.30
2023-03-10T06:00:51.042Z,8.30
2023-03-10T06:03:18.532Z,8.40
2023-03-10T06:05:45.605Z,8.40
2023-03-10T06:08:14.747Z,8.40
2023-03-10T06:10:41.580Z,8.40
2023-03-10T06:13:08.304Z,8.40
2023-03-10T06:15:35.296Z,8.40
2023-03-10T06:18:01.939Z,8.50
2023-03-10T06:20:28.601Z,8.50
2023-03-10T06:22:55.763Z,8.50
2023-03-10T06:25:22.387Z,8.60
2023-03-10T06:27:49.162Z,8.60
2023-03-10T06:30:16.509Z,8.60
2023-03-10T06:32:43.389Z,8.60
2023-03-10T06:35:13.411Z,8.60
2023-03-10T06:37:42.324Z,8.60
2023-03-10T06:40:13.036Z,8.70
2023-03-10T06:42:50.960Z,8.60
2023-03-10T06:45:17.709Z,8.60
2023-03-10T06:47:45.077Z,8.60
2023-03-10T06:50:13.206Z,8.60
2023-03-10T06:52:41.153Z,8.70
2023-03-10T06:55:08.155Z,8.70
2023-03-10T06:57:35.713Z,8.70
2023-03-10T07:00:05.277Z,8.80
2023-03-10T07:02:31.906Z,8.80
2023-03-10T07:04:58.900Z,8.90
2023-03-10T07:07:25.972Z,8.90
2023-03-10T07:09:52.608Z,8.90
2023-03-10T07:12:19.264Z,9.00
2023-03-10T07:14:45.924Z,9.00
2023-03-10T07:17:12.667Z,9.00
2023-03-10T07:19:41.725Z,9.00
2023-03-10T07:22:11.402Z,9.00
2023-03-10T07:24:38.192Z,9.00
2023-03-10T07:27:05.300Z,9.10
2023-03-10T07:29:31.960Z,9.10
2023-03-10T07:31:59.014Z,9.10
2023-03-10T07:34:27.452Z,9.20
2023-03-10T07:36:54.087Z,9.30
2023-03-10T07:39:21.162Z,9.50
2023-03-10T07:41:47.848Z,9.50
2023-03-10T07:44:15.542Z,9.50
2023-03-10T07:46:42.253Z,9.60
2023-03-10T07:49:08.929Z,9.60
2023-03-10T07:51:37.660Z,9.70
2023-03-10T07:54:06.366Z,9.80
2023-03-10T07:56:33.060Z,9.90
2023-03-10T07:59:00.679Z,10.10
2023-03-10T08:01:28.892Z,10.20
2023-03-10T08:03:57.973Z,10.30
2023-03-10T08:06:27.892Z,10.30
2023-03-10T08:08:55.361Z,10.50
2023-03-10T08:11:22.317Z,10.50
2023-03-10T08:13:49.194Z,10.60
2023-03-10T08:16:18.235Z,10.70
2023-03-10T08:18:45.182Z,10.70
2023-03-10T08:21:12.005Z,10.80
2023-03-10T08:23:39.370Z,10.70
2023-03-10T08:26:08.471Z,10.90
2023-03-10T08:28:37.597Z,11.10
2023-03-10T08:31:13.619Z,11.20
2023-03-10T08:33:41.024Z,11.50
2023-03-10T08:36:20.523Z,11.70
2023-03-10T08:38:49.439Z,11.90
2023-03-10T08:41:20.747Z,12.00
2023-03-10T08:43:49.490Z,12.10
2023-03-10T08:46:17.512Z,12.20
2023-03-10T08:48:44.241Z,12.50
2023-03-10T08:51:13.112Z,13.00
2023-03-10T08:53:41.082Z,13.20
2023-03-10T08:56:07.954Z,13.50
2023-03-10T08:58:38.258Z,13.60
2023-03-10T09:01:05.370Z,13.60
2023-03-10T09:03:34.902Z,13.10
2023-03-10T09:06:02.773Z,12.60
2023-03-10T09:08:29.536Z,12.20
2023-03-10T09:10:56.216Z,12.00
2023-03-10T09:13:23.790Z,11.80
2023-03-10T09:15:50.874Z,11.60
2023-03-10T09:18:17.553Z,11.40
2023-03-10T09:20:44.953Z,10.80
2023-03-10T09:23:14.800Z,10.20
2023-03-10T09:25:41.824Z,9.60
2023-03-10T09:28:09.760Z,9.30
2023-03-10T09:30:39.111Z,9.20
2023-03-10T09:33:08.644Z,9.20
2023-03-10T09:35:39.349Z,9.30
2023-03-10T09:38:08.708Z,9.30
2023-03-10T09:40:37.550Z,9.40
2023-03-10T09:43:05.887Z,9.40
2023-03-10T09:45:47.561Z,9.40
2023-03-10T09:48:25.398Z,9.40
2023-03-10T09:50:56.457Z,9.40
2023-03-10T09:53:25.932Z,9.40
2023-03-10T09:55:53.156Z,9.60
2023-03-10T09:58:44.463Z,9.70
2023-03-10T10:01:23.836Z,9.80
2023-03-10T10:04:08.304Z,9.80
2023-03-10T10:06:38.001Z,9.70
2023-03-10T10:09:24.840Z,9.50
2023-03-10T10:11:51.620Z,9.10
2023-03-10T10:14:29.891Z,8.90
2023-03-10T10:17:18.783Z,8.70
2023-03-10T10:19:48.002Z,8.50
2023-03-10T10:22:26.734Z,8.40
2023-03-10T10:25:08.774Z,8.30
2023-03-10T10:27:37.120Z,8.30
2023-03-10T10:30:29.545Z,8.50
2023-03-10T10:32:58.859Z,8.40
2023-03-10T10:35:28.819Z,8.50
2023-03-10T10:38:07.495Z,8.60
2023-03-10T10:40:36.425Z,8.90
2023-03-10T10:43:07.679Z,9.00
2023-03-10T10:45:37.985Z,9.20
2023-03-10T10:48:06.149Z,9.50
2023-03-10T10:50:40.474Z,9.60
2023-03-10T10:53:15.907Z,9.70
2023-03-10T10:55:45.961Z,9.70
2023-03-10T10:58:37.298Z,9.80
2023-03-10T11:01:12.895Z,9.90
2023-03-10T11:03:50.897Z,10.10
2023-03-10T11:06:31.316Z,10.30
2023-03-10T11:09:23.879Z,10.20
2023-03-10T11:12:35.280Z,10.30
2023-03-10T11:15:12.738Z,10.40
2023-03-10T11:17:46.681Z,10.60
2023-03-10T11:20:45.745Z,10.90
2023-03-10T11:23:22.023Z,11.00
2023-03-10T11:26:27.602Z,11.10
2023-03-10T11:29:31.440Z,11.00
2023-03-10T11:32:13.471Z,11.00
2023-03-10T11:34:47.901Z,10.90
2023-03-10T11:37:38.255Z,10.90
2023-03-10T11:40:19.597Z,11.20
2023-03-10T11:43:22.841Z,11.20
2023-03-10T11:45:55.413Z,11.50
2023-03-10T11:48:45.872Z,11.60
2023-03-10T11:51:27.246Z,11.80
2023-03-10T11:53:56.853Z,12.00
2023-03-10T11:56:25.633Z,12.10
2023-03-10T11:59:15.537Z,12.10
2023-03-10T12:02:11.144Z,11.90
2023-03-10T12:04:57.528Z,11.70
2023-03-10T12:07:35.910Z,11.60
2023-03-10T12:10:16.798Z,11.80
2023-03-10T12:12:46.774Z,12.10
2023-03-10T12:15:19.754Z,12.30
2023-03-10T12:17:49.206Z,12.20
2023-03-10T12:20:18.719Z,12.40
2023-03-10T12:23:12.570Z,12.20
2023-03-10T12:25:39.367Z,12.10
2023-03-10T12:28:20.774Z,12.00
2023-03-10T12:30:58.491Z,11.90
2023-03-10T12:33:33.128Z,11.70
2023-03-10T12:36:19.843Z,11.80
2023-03-10T12:38:49.489Z,11.90
2023-03-10T12:41:43.700Z,11.90
2023-03-10T12:44:22.499Z,12.10
2023-03-10T12:46:55.938Z,12.00
2023-03-10T12:49:34.002Z,12.00
2023-03-10T12:52:36.070Z,12.00
2023-03-10T12:55:17.811Z,11.70
2023-03-10T12:57:56.408Z,11.80
2023-03-10T13:00:40.480Z,11.80
2023-03-10T13:03:10.177Z,11.70
2023-03-10T13:05:44.563Z,11.50
2023-03-10T13:08:22.565Z,11.60
2023-03-10T13:10:56.322Z,11.50
2023-03-10T13:13:31.814Z,11.50
2023-03-10T13:16:01.581Z,11.40
2023-03-10T13:18:28.516Z,11.40
2023-03-10T13:20:55.186Z,11.40
2023-03-10T13:23:27.795Z,11.30
2023-03-10T13:25:57.081Z,11.20
2023-03-10T13:28:30.893Z,11.20
2023-03-10T13:31:16.490Z,11.20
2023-03-10T13:33:52.675Z,11.40
2023-03-10T13:36:42.600Z,11.40
2023-03-10T13:39:15.885Z,11.40
2023-03-10T13:41:47.660Z,11.40
2023-03-10T13:44:24.750Z,11.00
2023-03-10T13:46:59.531Z,10.90
2023-03-10T13:49:31.338Z,11.00
2023-03-10T13:52:01.737Z,11.10
2023-03-10T13:54:33.694Z,11.10
2023-03-10T13:57:31.332Z,11.00
2023-03-10T13:59:59.220Z,10.90
2023-03-10T14:02:39.328Z,10.60
2023-03-10T14:05:08.266Z,10.60
2023-03-10T14:07:39.317Z,10.70
2023-03-10T14:10:05.912Z,10.70
2023-03-10T14:12:50.068Z,10.50
2023-03-10T14:15:19.578Z,10.50
2023-03-10T14:17:52.394Z,10.50
2023-03-10T14:20:30.757Z,10.30
2023-03-10T14:22:57.760Z,10.40
2023-03-10T14:25:25.115Z,10.30
2023-03-10T14:30:43.887Z,9.90
2023-03-10T14:33:13.891Z,9.90
2023-03-10T14:35:41.599Z,9.80
2023-03-10T14:38:08.331Z,9.60
2023-03-10T14:40:42.071Z,9.50
2023-03-10T14:43:16.723Z,9.50
2023-03-10T14:45:45.490Z,9.60
2023-03-10T14:48:18.309Z,9.70
2023-03-10T14:50:46.299Z,9.80
2023-03-10T14:53:16.820Z,9.80
2023-03-10T14:55:47.751Z,9.90
2023-03-10T14:58:16.576Z,9.90
2023-03-10T15:00:43.328Z,9.70
2023-03-10T15:03:11.929Z,9.60
2023-03-10T15:05:48.242Z,9.50
2023-03-10T15:08:16.967Z,9.50
2023-03-10T15:10:50.545Z,9.50
2023-03-10T15:13:19.426Z,9.50
2023-03-10T15:15:47.699Z,9.60
2023-03-10T15:18:19.058Z,9.50
2023-03-10T15:20:46.066Z,9.50
2023-03-10T15:23:16.153Z,9.50
2023-03-10T15:25:46.143Z,9.40
2023-03-10T15:28:13.734Z,9.30
2023-03-10T15:30:41.063Z,9.20
2023-03-10T15:33:07.931Z,8.90
2023-03-10T15:35:35.105Z,8.90
2023-03-10T15:38:02.054Z,8.80
2023-03-10T15:40:38.934Z,8.70
2023-03-10T15:43:05.699Z,8.50
2023-03-10T15:45:32.654Z,8.40
2023-03-10T15:48:02.353Z,8.40
2023-03-10T15:50:29.017Z,8.40
2023-03-10T15:52:57.827Z,8.40
2023-03-10T15:55:26.241Z,8.50
2023-03-10T15:57:53.318Z,8.50
2023-03-10T16:00:22.719Z,8.50
2023-03-10T16:02:50.732Z,8.60
2023-03-10T16:05:19.207Z,8.60
2023-03-10T16:07:46.161Z,8.60
2023-03-10T16:10:16.037Z,8.70
2023-03-10T16:12:42.801Z,8.70
2023-03-10T16:15:11.807Z,8.80
2023-03-10T16:17:38.638Z,8.80
2023-03-10T16:20:11.929Z,8.80
2023-03-10T16:22:40.656Z,8.90
2023-03-10T16:25:10.462Z,8.90
2023-03-10T16:27:37.189Z,8.90
2023-03-10T16:30:04.706Z,8.90
2023-03-10T16:32:31.516Z,8.90
2023-03-10T16:34:59.938Z,8.90
2023-03-10T16:37:28.203Z,8.90
2023-03-10T16:39:56.105Z,8.90
2023-03-10T16:42:26.303Z,8.90
2023-03-10T16:44:59.914Z,8.90
2023-03-10T16:47:28.493Z,8.80
2023-03-10T16:49:57.610Z,8.80
2023-03-10T16:52:24.259Z,8.80
2023-03-10T16:54:50.934Z,8.80
2023-03-10T16:57:17.956Z,8.80
2023-03-10T16:59:44.795Z,8.70
2023-03-10T17:02:19.228Z,8.50
2023-03-10T17:04:46.512Z,8.20
2023-03-10T17:07:14.105Z,7.70
2023-03-10T17:09:40.871Z,7.50
2023-03-10T17:12:07.702Z,7.20
2023-03-10T17:14:34.394Z,7.10
2023-03-10T17:17:01.425Z,7.10
2023-03-10T17:19:31.023Z,7.10
2023-03-10T17:21:58.655Z,7.10
2023-03-10T17:24:25.956Z,7.10
2023-03-10T17:26:53.063Z,7.10
2023-03-10T17:29:20.005Z,7.10
2023-03-10T17:31:50.260Z,7.10
2023-03-10T17:34:17.835Z,7.00
2023-03-10T17:36:44.940Z,7.00
2023-03-10T17:39:18.913Z,6.90
2023-03-10T17:41:46.002Z,6.90
2023-03-10T17:44:12.699Z,6.90
2023-03-10T17:46:40.996Z,6.80
2023-03-10T17:49:09.127Z,6.80
2023-03-10T17:51:35.828Z,6.80
2023-03-10T17:54:03.144Z,6.80
2023-03-10T17:56:30.296Z,6.80
2023-03-10T17:58:58.342Z,6.80
2023-03-10T18:01:27.671Z,6.70
2023-03-10T18:03:56.133Z,6.60
2023-03-10T18:06:25.188Z,6.40
2023-03-10T18:08:55.946Z,6.40
2023-03-10T18:11:23.681Z,6.30
2023-03-10T18:13:50.372Z,6.30
2023-03-10T18:16:22.905Z,6.30
2023-03-10T18:18:50.328Z,6.30
2023-03-10T18:21:18.274Z,6.20
2023-03-10T18:23:46.191Z,6.10
2023-03-10T18:26:15.821Z,6.00
2023-03-10T18:28:43.474Z,6.00
2023-03-10T18:31:19.517Z,5.90
2023-03-10T18:33:46.482Z,5.60
2023-03-10T18:36:14.701Z,5.00
2023-03-10T18:38:43.210Z,4.50
2023-03-10T18:41:10.370Z,4.40
2023-03-10T18:43:37.267Z,4.50
2023-03-10T18:46:04.152Z,4.60
2023-03-10T18:48:30.909Z,4.70
2023-03-10T18:50:59.350Z,4.60
2023-03-10T18:53:27.284Z,4.60
2023-03-10T18:55:54.554Z,4.50
2023-03-10T18:58:22.455Z,4.50
2023-03-10T19:00:49.390Z,4.50
2023-03-10T19:03:18.602Z,4.60
2023-03-10T19:05:45.780Z,4.60
2023-03-10T19:08:12.580Z,4.60
2023-03-10T19:10:39.862Z,4.60
2023-03-10T19:13:07.637Z,4.60
2023-03-10T19:15:36.713Z,4.50
2023-03-10T19:18:04.121Z,4.50
2023-03-10T19:20:31.266Z,4.60
2023-03-10T19:22:57.903Z,4.50
2023-03-10T19:25:24.563Z,4.50
2023-03-10T19:27:51.297Z,4.50
2023-03-10T19:30:20.126Z,4.50
2023-03-10T19:32:47.811Z,4.50
2023-03-10T19:35:15.534Z,4.60
2023-03-10T19:37:43.471Z,4.60
2023-03-10T19:40:17.371Z,4.60
2023-03-10T19:42:44.665Z,4.70
2023-03-10T19:45:16.532Z,4.70
2023-03-10T19:47:44.374Z,4.80
2023-03-10T19:50:13.760Z,4.90
2023-03-10T19:52:48.313Z,4.90
2023-03-10T19:55:22.872Z,4.90
2023-03-10T19:57:53.724Z,5.10
2023-03-10T20:00:24.676Z,5.10
2023-03-10T20:02:54.834Z,5.20
2023-03-10T20:05:22.989Z,5.30
2023-03-10T20:07:49.743Z,5.30
2023-03-10T20:10:17.805Z,5.30
2023-03-10T20:12:47.188Z,5.40
2023-03-10T20:15:14.269Z,5.50
2023-03-10T20:17:40.975Z,5.50
2023-03-10T20:20:10.609Z,5.50
2023-03-10T20:22:42.782Z,5.50
2023-03-10T20:25:13.724Z,5.50
2023-03-10T20:27:40.602Z,5.50
2023-03-10T20:30:17.497Z,5.60
2023-03-10T20:32:44.600Z,5.60
2023-03-10T20:35:12.492Z,5.60
2023-03-10T20:37:41.688Z,5.50
2023-03-10T20:40:11.212Z,5.40
2023-03-10T20:42:37.901Z,5.30
2023-03-10T20:45:06.132Z,5.20
2023-03-10T20:47:33.094Z,4.90
2023-03-10T20:50:00.007Z,4.10
2023-03-10T20:52:27.620Z,3.30
2023-03-10T20:54:54.490Z,3.10
2023-03-10T20:57:21.175Z,3.10
2023-03-10T20:59:47.857Z,3.30
2023-03-10T21:02:18.023Z,3.50
2023-03-10T21:04:46.305Z,3.60
2023-03-10T21:07:13.415Z,3.70
2023-03-10T21:09:40.047Z,3.70
2023-03-10T21:12:06.836Z,3.70
2023-03-10T21:14:33.533Z,3.70
2023-03-10T21:17:01.495Z,3.70
2023-03-10T21:19:28.579Z,3.70
2023-03-10T21:21:55.316Z,3.80
2023-03-10T21:24:22.543Z,3.90
2023-03-10T21:26:49.262Z,3.90
2023-03-10T21:29:16.031Z,3.90
2023-03-10T21:31:42.673Z,4.00
2023-03-10T21:34:09.302Z,4.00
2023-03-10T21:36:35.961Z,4.10
2023-03-10T21:39:03.250Z,4.20
2023-03-10T21:41:30.899Z,4.20
2023-03-10T21:44:00.774Z,4.30
2023-03-10T21:46:27.952Z,4.30
2023-03-10T21:48:54.925Z,4.20
2023-03-10T21:51:23.761Z,4.20
2023-03-10T21:53:51.974Z,4.30
2023-03-10T21:56:19.727Z,4.20
2023-03-10T21:58:46.796Z,4.20
2023-03-10T22:01:15.684Z,4.20
2023-03-10T22:03:43.055Z,4.30
2023-03-10T22:06:09.846Z,4.10
2023-03-10T22:08:37.547Z,4.00
2023-03-10T22:11:08.646Z,3.90
2023-03-10T22:13:39.097Z,3.90
2023-03-10T22:16:09.585Z,3.80
2023-03-10T22:18:36.708Z,3.90
2023-03-10T22:21:03.596Z,3.80
2023-03-10T22:23:30.331Z,3.70
2023-03-10T22:25:56.971Z,3.60
2023-03-10T22:28:23.619Z,3.70
2023-03-10T22:30:50.239Z,3.60
2023-03-10T22:33:16.989Z,3.60
2023-03-10T22:35:47.389Z,3.60
2023-03-10T22:38:14.083Z,3.60
2023-03-10T22:40:40.712Z,3.40
2023-03-10T22:43:07.379Z,3.20
2023-03-10T22:45:34.160Z,3.10
2023-03-10T22:48:04.009Z,3.10
2023-03-10T22:50:43.597Z,3.00
2023-03-10T22:53:16.016Z,3.00
2023-03-10T22:55:43.615Z,3.00
2023-03-10T22:58:11.134Z,3.00
2023-03-10T23:00:39.210Z,3.00
2023-03-10T23:03:07.202Z,3.00
2023-03-10T23:05:33.918Z,3.00
2023-03-10T23:08:00.881Z,3.00
2023-03-10T23:10:30.523Z,2.90
2023-03-10T23:13:00.222Z,2.90
2023-03-10T23:15:29.714Z,2.80
2023-03-10T23:17:57.322Z,2.80
2023-03-10T23:20:27.296Z,2.80
2023-03-10T23:22:56.071Z,2.70
2023-03-10T23:25:30.435Z,2.70
2023-03-10T23:27:57.541Z,2.70
2023-03-10T23:30:24.890Z,2.80
2023-03-10T23:32:52.012Z,2.70
2023-03-10T23:35:27.666Z,2.70
2023-03-10T23:37:54.858Z,2.80
2023-03-10T23:40:23.954Z,2.70
2023-03-10T23:42:50.720Z,2.70
2023-03-10T23:45:19.355Z,2.80
2023-03-10T23:47:46.780Z,2.80
2023-03-10T23:50:24.510Z,2.80
2023-03-10T23:52:51.293Z,2.80
2023-03-10T23:55:26.015Z,2.80
2023-03-10T23:57:52.864Z,2.80
